SVA715 HAAB-HKJK
Flight info
| Callsign | SVA715 |
|---|---|
| Flight time | N/A |
| Altitude | 40000 |
| Route | SHALA2A SHALA UM308 RUDOL/N0470F410 UM308 LOTAS LOTAS4D |
| Aircraft | MD11/H-SDE1E2E3FGHIJ2J3J4J5M1RWXY/LB1D1 |
Departure
| Time | N/A |
|---|---|
| Airport | Addis Ababa Bole International Airport (HAAB) |
Arrival
| Time | 2026-04-30 18:16 |
|---|---|
| Airport | Jomo Kenyatta International Airport (HKJK) |
| Time | Latitude | Longitude | Altitude | Speed | Heading |
|---|---|---|---|---|---|
| 2026-04-30 17:39 | 2.29282 | 36.91224 | 39976 ft | 470 kts | 195° |
| 2026-04-30 17:42 | 1.97935 | 36.81930 | 39985 ft | 471 kts | 196° |
| 2026-04-30 17:43 | 1.82215 | 36.77270 | 39994 ft | 471 kts | 195° |
| 2026-04-30 17:44 | 1.63388 | 36.71691 | 39985 ft | 472 kts | 196° |
| 2026-04-30 17:47 | 1.35055 | 36.63296 | 39999 ft | 472 kts | 196° |
| 2026-04-30 17:48 | 1.13009 | 36.56766 | 40032 ft | 475 kts | 196° |
| 2026-04-30 17:49 | 1.00258 | 36.53316 | 40031 ft | 474 kts | 185° |
| 2026-04-30 17:50 | 0.87088 | 36.53806 | 40039 ft | 475 kts | 175° |
| 2026-04-30 17:52 | 0.67337 | 36.54794 | 40073 ft | 474 kts | 177° |
| 2026-04-30 17:54 | 0.37658 | 36.56093 | 40105 ft | 475 kts | 177° |
| 2026-04-30 17:56 | 0.12437 | 36.57201 | 38817 ft | 470 kts | 178° |
| 2026-04-30 17:57 | 0.02582 | 36.57633 | 37107 ft | 476 kts | 178° |
| 2026-04-30 17:58 | -0.07389 | 36.58071 | 35502 ft | 479 kts | 177° |
| 2026-04-30 17:59 | -0.20759 | 36.58659 | 33089 ft | 485 kts | 177° |
| 2026-04-30 18:00 | -0.34308 | 36.59254 | 30694 ft | 488 kts | 177° |
| 2026-04-30 18:00 | -0.44504 | 36.59702 | 28615 ft | 487 kts | 177° |
| 2026-04-30 18:01 | -0.51203 | 36.59997 | 27252 ft | 477 kts | 177° |
| 2026-04-30 18:02 | -0.61011 | 36.60421 | 25280 ft | 463 kts | 178° |
| 2026-04-30 18:02 | -0.70530 | 36.60836 | 23296 ft | 450 kts | 178° |
| 2026-04-30 18:03 | -0.79764 | 36.61250 | 21345 ft | 435 kts | 178° |
| 2026-04-30 18:04 | -0.88659 | 36.61640 | 19533 ft | 423 kts | 178° |
| 2026-04-30 18:05 | -1.00197 | 36.62140 | 17097 ft | 407 kts | 178° |
| 2026-04-30 18:06 | -1.11319 | 36.62625 | 14824 ft | 393 kts | 177° |
| 2026-04-30 18:07 | -1.22051 | 36.63105 | 12534 ft | 378 kts | 176° |
| 2026-04-30 18:08 | -1.29420 | 36.63428 | 11333 ft | 307 kts | 176° |
| 2026-04-30 18:09 | -1.36723 | 36.63924 | 10729 ft | 231 kts | 164° |
| 2026-04-30 18:10 | -1.40843 | 36.67899 | 10052 ft | 208 kts | 108° |
| 2026-04-30 18:11 | -1.42412 | 36.73067 | 8928 ft | 174 kts | 107° |
| 2026-04-30 18:11 | -1.43078 | 36.76572 | 8924 ft | 172 kts | 82° |
| 2026-04-30 18:12 | -1.41375 | 36.79754 | 8694 ft | 176 kts | 60° |
| 2026-04-30 18:13 | -1.39853 | 36.81663 | 7386 ft | 180 kts | 51° |
| 2026-04-30 18:13 | -1.38002 | 36.84131 | 7186 ft | 160 kts | 58° |
| 2026-04-30 18:14 | -1.36517 | 36.86271 | 6740 ft | 160 kts | 60° |
| 2026-04-30 18:15 | -1.34593 | 36.88992 | 6059 ft | 160 kts | 57° |
| 2026-04-30 18:15 | -1.32706 | 36.91699 | 5348 ft | 155 kts | 56° |
| 2026-04-30 18:16 | -1.31830 | 36.92907 | 5314 ft | 55 kts | 53° |
| 2026-04-30 18:16 | -1.31567 | 36.93297 | 5309 ft | 16 kts | 90° |
| 2026-04-30 18:17 | -1.31623 | 36.93373 | 5307 ft | 13 kts | 142° |
| 2026-04-30 18:17 | -1.31689 | 36.93420 | 5311 ft | 11 kts | 144° |
| 2026-04-30 18:17 | -1.31854 | 36.93429 | 5313 ft | 17 kts | 230° |
| 2026-04-30 18:18 | -1.31935 | 36.93321 | 5315 ft | 21 kts | 233° |
| 2026-04-30 18:18 | -1.32023 | 36.93200 | 5320 ft | 21 kts | 234° |
| 2026-04-30 18:18 | -1.32103 | 36.93091 | 5321 ft | 18 kts | 233° |
| 2026-04-30 18:18 | -1.32169 | 36.93001 | 5332 ft | 14 kts | 233° |
| 2026-04-30 18:19 | -1.32223 | 36.92929 | 5335 ft | 12 kts | 233° |
| 2026-04-30 18:19 | -1.32270 | 36.92864 | 5335 ft | 11 kts | 233° |
| 2026-04-30 18:19 | -1.32310 | 36.92811 | 5332 ft | 8 kts | 232° |
| 2026-04-30 18:19 | -1.32340 | 36.92774 | 5334 ft | 7 kts | 233° |
| 2026-04-30 18:20 | -1.32383 | 36.92713 | 5336 ft | 15 kts | 235° |
| 2026-04-30 18:20 | -1.32455 | 36.92611 | 5336 ft | 21 kts | 234° |
| 2026-04-30 18:20 | -1.32548 | 36.92483 | 5337 ft | 23 kts | 234° |
| 2026-04-30 18:20 | -1.32638 | 36.92360 | 5338 ft | 21 kts | 233° |
| 2026-04-30 18:21 | -1.32720 | 36.92250 | 5337 ft | 16 kts | 233° |
| 2026-04-30 18:21 | -1.32800 | 36.92221 | 5335 ft | 12 kts | 166° |
| 2026-04-30 18:21 | -1.32870 | 36.92254 | 5337 ft | 10 kts | 156° |
| 2026-04-30 18:21 | -1.32922 | 36.92248 | 5333 ft | 7 kts | 197° |
| 2026-04-30 18:22 | -1.32950 | 36.92232 | 5336 ft | 3 kts | 226° |
| 2026-04-30 18:22 | -1.32945 | 36.92174 | 5340 ft | 4 kts | 287° |
| 2026-04-30 18:22 | -1.32940 | 36.92158 | 5337 ft | 0 kts | 288° |